EDMO

Details ICAO EDMO (OBF)
Name Oberpfaffenhofen
Region Germany - Civil
Timezone Europe/Berlin (UTC+1.0)
Plans Departing 59
Arriving 29
Stats Elevation 1,947 ft / 593 m (AMSL)
Location 48.081620° 11.283418°
Runways 1
Magnetic Variation 3.031° E
Sunrise 2017-12-18 07:01:52 UTC / 2017-12-18 08:01:52 Local
Sunset 2017-12-18 15:23:46 UTC / 2017-12-18 16:23:46 Local
Advertisement - Login to hide

Runways

ID Width Length Bearing (true) Bearing (mag) Surface Threshold Offset Overrun Length
04 147 ft / 45 m 7,491 ft / 2,283 m 42.36° 39.33° Asphalt 0 ft / 0 m 231 ft / 70 m
22 147 ft / 45 m 7,491 ft / 2,283 m 222.38° 219.35° Asphalt 0 ft / 0 m 0 ft / 0 m

Approach Navaids

Runway Type Ident Frequency Range Bearing (true) Bearing (mag) Slope Elevation
22 Localiser OBI 110.50 MHz 18 nm / 33 km 222.35° 219.32° - 1,947 ft / 593 m (AMSL)
22 Glidescope OBI 110.50 MHz 10 nm / 19 km 222.37° 219.34° 3.00° 1,947 ft / 593 m (AMSL)

Map

Weather


0- 5 10 15 20 25 30 35+ Temperature / ° C

Clouds and Precipitation
Forecast for 2017-12-18 18:00 UTC. Updated 2 hours ago

Ground ~20,000 ft ~40,000 ft Winds

METAR

EDMO 181620Z 07002KT 9999 BKN033 M01/M03 Q1023

TAF

Not found

Frequencies

Tower 126.95 MHz MUNCHEN INFO
Tower 122.10 MHz TWR
Approach 120.77 MHz MUNCHEN ARR
Tower 119.55 MHz TWR
Approach 127.95 MHz MUNCHEN RADAR
Warning: Do not use this data for real-world aviation or navigation. No guarantee of current accuracy is given.